sensor_id;sensor_type;location;lat;lon;timestamp;temperature;humidity
12384;DHT22;6256;63.808;20.336;2023-04-01T00:02:00;-2.50;93.20
12384;DHT22;6256;63.808;20.336;2023-04-01T00:04:25;-2.50;93.30
12384;DHT22;6256;63.808;20.336;2023-04-01T00:06:51;-2.50;93.30
12384;DHT22;6256;63.808;20.336;2023-04-01T00:09:17;-2.60;93.20
12384;DHT22;6256;63.808;20.336;2023-04-01T00:11:43;-2.60;93.40
12384;DHT22;6256;63.808;20.336;2023-04-01T00:14:10;-2.60;93.40
12384;DHT22;6256;63.808;20.336;2023-04-01T00:16:36;-2.70;93.30
12384;DHT22;6256;63.808;20.336;2023-04-01T00:19:02;-2.70;93.30
12384;DHT22;6256;63.808;20.336;2023-04-01T00:21:28;-2.70;93.30
12384;DHT22;6256;63.808;20.336;2023-04-01T00:23:54;-2.70;93.20
12384;DHT22;6256;63.808;20.336;2023-04-01T00:26:20;-2.70;93.30
12384;DHT22;6256;63.808;20.336;2023-04-01T00:28:47;-2.70;93.60
12384;DHT22;6256;63.808;20.336;2023-04-01T00:31:13;-2.70;93.60
12384;DHT22;6256;63.808;20.336;2023-04-01T00:33:40;-2.70;93.60
12384;DHT22;6256;63.808;20.336;2023-04-01T00:36:11;-2.70;93.40
12384;DHT22;6256;63.808;20.336;2023-04-01T00:38:38;-2.80;93.60
12384;DHT22;6256;63.808;20.336;2023-04-01T00:41:04;-2.80;93.70
12384;DHT22;6256;63.808;20.336;2023-04-01T00:43:31;-2.80;93.70
12384;DHT22;6256;63.808;20.336;2023-04-01T00:45:57;-2.80;93.90
12384;DHT22;6256;63.808;20.336;2023-04-01T00:48:26;-2.80;93.60
12384;DHT22;6256;63.808;20.336;2023-04-01T00:51:09;-2.80;93.70
12384;DHT22;6256;63.808;20.336;2023-04-01T00:53:41;-2.80;93.70
12384;DHT22;6256;63.808;20.336;2023-04-01T00:56:21;-2.90;93.90
12384;DHT22;6256;63.808;20.336;2023-04-01T00:58:51;-2.90;93.80
12384;DHT22;6256;63.808;20.336;2023-04-01T01:01:22;-3.00;93.70
12384;DHT22;6256;63.808;20.336;2023-04-01T01:03:48;-3.00;93.80
12384;DHT22;6256;63.808;20.336;2023-04-01T01:07:03;-3.00;93.70
12384;DHT22;6256;63.808;20.336;2023-04-01T01:17:29;-3.10;93.50
12384;DHT22;6256;63.808;20.336;2023-04-01T01:20:12;-3.10;93.50
12384;DHT22;6256;63.808;20.336;2023-04-01T01:36:42;-3.20;93.60
12384;DHT22;6256;63.808;20.336;2023-04-01T01:39:11;-3.30;93.80
12384;DHT22;6256;63.808;20.336;2023-04-01T01:41:38;-3.30;93.70
12384;DHT22;6256;63.808;20.336;2023-04-01T01:44:06;-3.30;93.80
12384;DHT22;6256;63.808;20.336;2023-04-01T01:46:33;-3.40;93.90
12384;DHT22;6256;63.808;20.336;2023-04-01T01:49:00;-3.40;94.00
12384;DHT22;6256;63.808;20.336;2023-04-01T01:51:28;-3.40;93.90
12384;DHT22;6256;63.808;20.336;2023-04-01T01:53:54;-3.40;93.80
12384;DHT22;6256;63.808;20.336;2023-04-01T01:56:22;-3.40;93.80
12384;DHT22;6256;63.808;20.336;2023-04-01T01:58:52;-3.50;93.90
12384;DHT22;6256;63.808;20.336;2023-04-01T02:01:24;-3.50;94.00
12384;DHT22;6256;63.808;20.336;2023-04-01T02:03:52;-3.50;94.20
12384;DHT22;6256;63.808;20.336;2023-04-01T02:06:22;-3.60;94.40
12384;DHT22;6256;63.808;20.336;2023-04-01T02:11:21;-3.60;94.50
12384;DHT22;6256;63.808;20.336;2023-04-01T02:14:16;-3.60;94.60
12384;DHT22;6256;63.808;20.336;2023-04-01T02:16:50;-3.60;94.60
12384;DHT22;6256;63.808;20.336;2023-04-01T02:19:18;-3.60;94.50
12384;DHT22;6256;63.808;20.336;2023-04-01T02:21:52;-3.60;94.60
12384;DHT22;6256;63.808;20.336;2023-04-01T02:24:20;-3.70;94.50
12384;DHT22;6256;63.808;20.336;2023-04-01T02:26:50;-3.70;94.50
12384;DHT22;6256;63.808;20.336;2023-04-01T02:29:19;-3.70;94.40
12384;DHT22;6256;63.808;20.336;2023-04-01T02:31:46;-3.80;94.50
12384;DHT22;6256;63.808;20.336;2023-04-01T02:34:12;-3.80;94.40
12384;DHT22;6256;63.808;20.336;2023-04-01T02:36:39;-3.90;94.40
12384;DHT22;6256;63.808;20.336;2023-04-01T02:39:05;-3.90;94.50
12384;DHT22;6256;63.808;20.336;2023-04-01T02:41:31;-3.90;94.40
12384;DHT22;6256;63.808;20.336;2023-04-01T02:44:03;-4.00;94.40
12384;DHT22;6256;63.808;20.336;2023-04-01T02:46:29;-4.00;94.40
12384;DHT22;6256;63.808;20.336;2023-04-01T02:48:55;-4.00;94.70
12384;DHT22;6256;63.808;20.336;2023-04-01T02:51:21;-4.10;94.50
12384;DHT22;6256;63.808;20.336;2023-04-01T02:53:46;-4.10;94.50
12384;DHT22;6256;63.808;20.336;2023-04-01T02:56:12;-4.10;94.50
12384;DHT22;6256;63.808;20.336;2023-04-01T02:58:38;-4.20;94.50
12384;DHT22;6256;63.808;20.336;2023-04-01T03:01:03;-4.20;94.80
12384;DHT22;6256;63.808;20.336;2023-04-01T03:03:29;-4.30;94.80
12384;DHT22;6256;63.808;20.336;2023-04-01T03:05:55;-4.30;94.80
12384;DHT22;6256;63.808;20.336;2023-04-01T03:08:21;-4.40;94.90
12384;DHT22;6256;63.808;20.336;2023-04-01T03:10:47;-4.40;94.90
12384;DHT22;6256;63.808;20.336;2023-04-01T03:13:13;-4.40;94.80
12384;DHT22;6256;63.808;20.336;2023-04-01T03:15:39;-4.40;94.70
12384;DHT22;6256;63.808;20.336;2023-04-01T03:18:04;-4.40;94.90
12384;DHT22;6256;63.808;20.336;2023-04-01T03:20:30;-4.50;94.80
12384;DHT22;6256;63.808;20.336;2023-04-01T03:22:56;-4.50;95.00
12384;DHT22;6256;63.808;20.336;2023-04-01T03:25:22;-4.50;95.00
12384;DHT22;6256;63.808;20.336;2023-04-01T03:27:47;-4.60;95.10
12384;DHT22;6256;63.808;20.336;2023-04-01T03:30:13;-4.60;95.10
12384;DHT22;6256;63.808;20.336;2023-04-01T03:32:39;-4.70;95.20
12384;DHT22;6256;63.808;20.336;2023-04-01T03:35:05;-4.60;95.10
12384;DHT22;6256;63.808;20.336;2023-04-01T03:37:31;-4.70;94.90
12384;DHT22;6256;63.808;20.336;2023-04-01T03:39:57;-4.60;95.10
12384;DHT22;6256;63.808;20.336;2023-04-01T03:42:23;-4.70;95.00
12384;DHT22;6256;63.808;20.336;2023-04-01T03:44:48;-4.70;95.00
12384;DHT22;6256;63.808;20.336;2023-04-01T03:47:15;-4.70;95.10
12384;DHT22;6256;63.808;20.336;2023-04-01T03:49:40;-4.70;95.20
12384;DHT22;6256;63.808;20.336;2023-04-01T03:52:09;-4.80;95.10
12384;DHT22;6256;63.808;20.336;2023-04-01T03:54:36;-4.80;95.00
12384;DHT22;6256;63.808;20.336;2023-04-01T03:57:02;-4.80;95.00
12384;DHT22;6256;63.808;20.336;2023-04-01T03:59:28;-4.90;94.90
12384;DHT22;6256;63.808;20.336;2023-04-01T04:01:53;-4.90;95.00
12384;DHT22;6256;63.808;20.336;2023-04-01T04:04:19;-4.90;94.90
12384;DHT22;6256;63.808;20.336;2023-04-01T04:06:45;-4.90;94.80
12384;DHT22;6256;63.808;20.336;2023-04-01T04:09:11;-4.90;94.80
12384;DHT22;6256;63.808;20.336;2023-04-01T04:11:36;-4.90;94.90
12384;DHT22;6256;63.808;20.336;2023-04-01T04:14:03;-4.90;94.90
12384;DHT22;6256;63.808;20.336;2023-04-01T04:16:29;-4.90;95.10
12384;DHT22;6256;63.808;20.336;2023-04-01T04:18:54;-4.90;95.00
12384;DHT22;6256;63.808;20.336;2023-04-01T04:21:20;-5.00;94.90
12384;DHT22;6256;63.808;20.336;2023-04-01T04:23:46;-4.90;94.80
12384;DHT22;6256;63.808;20.336;2023-04-01T04:26:14;-4.90;95.00
12384;DHT22;6256;63.808;20.336;2023-04-01T04:28:40;-4.90;95.00
12384;DHT22;6256;63.808;20.336;2023-04-01T04:31:06;-4.90;94.60
12384;DHT22;6256;63.808;20.336;2023-04-01T04:33:33;-4.90;94.60
12384;DHT22;6256;63.808;20.336;2023-04-01T04:35:59;-4.90;94.60
12384;DHT22;6256;63.808;20.336;2023-04-01T04:38:26;-4.80;94.30
12384;DHT22;6256;63.808;20.336;2023-04-01T04:40:52;-4.80;94.40
12384;DHT22;6256;63.808;20.336;2023-04-01T04:43:18;-4.80;94.50
12384;DHT22;6256;63.808;20.336;2023-04-01T04:45:44;-4.80;94.50
12384;DHT22;6256;63.808;20.336;2023-04-01T04:48:12;-4.90;94.50
12384;DHT22;6256;63.808;20.336;2023-04-01T04:50:44;-4.90;94.80
12384;DHT22;6256;63.808;20.336;2023-04-01T04:53:11;-4.90;94.80
12384;DHT22;6256;63.808;20.336;2023-04-01T04:55:38;-4.90;94.80
12384;DHT22;6256;63.808;20.336;2023-04-01T04:58:08;-4.80;94.70
12384;DHT22;6256;63.808;20.336;2023-04-01T05:00:33;-4.80;94.60
12384;DHT22;6256;63.808;20.336;2023-04-01T05:02:59;-4.80;94.50
12384;DHT22;6256;63.808;20.336;2023-04-01T05:05:25;-4.70;94.60
12384;DHT22;6256;63.808;20.336;2023-04-01T05:07:51;-4.80;94.70
12384;DHT22;6256;63.808;20.336;2023-04-01T05:10:16;-4.70;94.40
12384;DHT22;6256;63.808;20.336;2023-04-01T05:12:42;-4.70;94.20
12384;DHT22;6256;63.808;20.336;2023-04-01T05:15:08;-4.60;94.30
12384;DHT22;6256;63.808;20.336;2023-04-01T05:17:34;-4.60;94.30
12384;DHT22;6256;63.808;20.336;2023-04-01T05:20:00;-4.40;93.40
12384;DHT22;6256;63.808;20.336;2023-04-01T05:22:26;-4.40;93.60
12384;DHT22;6256;63.808;20.336;2023-04-01T05:24:52;-4.30;93.10
12384;DHT22;6256;63.808;20.336;2023-04-01T05:27:18;-4.10;92.90
12384;DHT22;6256;63.808;20.336;2023-04-01T05:29:43;-4.00;92.70
12384;DHT22;6256;63.808;20.336;2023-04-01T05:32:09;-4.00;92.80
12384;DHT22;6256;63.808;20.336;2023-04-01T05:34:35;-3.90;92.50
12384;DHT22;6256;63.808;20.336;2023-04-01T05:37:01;-3.90;92.80
12384;DHT22;6256;63.808;20.336;2023-04-01T05:39:26;-3.80;92.80
12384;DHT22;6256;63.808;20.336;2023-04-01T05:41:52;-3.70;92.20
12384;DHT22;6256;63.808;20.336;2023-04-01T05:44:18;-3.60;91.90
12384;DHT22;6256;63.808;20.336;2023-04-01T05:46:44;-3.50;91.60
12384;DHT22;6256;63.808;20.336;2023-04-01T05:49:09;-3.40;91.70
12384;DHT22;6256;63.808;20.336;2023-04-01T05:51:35;-3.40;92.00
12384;DHT22;6256;63.808;20.336;2023-04-01T05:54:01;-3.30;91.90
12384;DHT22;6256;63.808;20.336;2023-04-01T05:56:26;-3.30;91.40
12384;DHT22;6256;63.808;20.336;2023-04-01T05:58:53;-3.20;91.30
12384;DHT22;6256;63.808;20.336;2023-04-01T06:01:19;-3.10;91.40
12384;DHT22;6256;63.808;20.336;2023-04-01T06:03:45;-3.10;91.50
12384;DHT22;6256;63.808;20.336;2023-04-01T06:06:20;-3.00;91.30
12384;DHT22;6256;63.808;20.336;2023-04-01T06:08:48;-2.90;91.10
12384;DHT22;6256;63.808;20.336;2023-04-01T06:19:47;-2.60;90.40
12384;DHT22;6256;63.808;20.336;2023-04-01T06:25:22;-2.50;90.30
12384;DHT22;6256;63.808;20.336;2023-04-01T06:30:47;-2.30;88.90
12384;DHT22;6256;63.808;20.336;2023-04-01T06:33:21;-2.20;89.10
12384;DHT22;6256;63.808;20.336;2023-04-01T06:36:25;-2.10;89.10
12384;DHT22;6256;63.808;20.336;2023-04-01T06:39:30;-2.10;90.00
12384;DHT22;6256;63.808;20.336;2023-04-01T06:47:28;-1.80;89.00
12384;DHT22;6256;63.808;20.336;2023-04-01T06:58:21;-1.50;88.00
12384;DHT22;6256;63.808;20.336;2023-04-01T07:00:58;-1.40;85.40
12384;DHT22;6256;63.808;20.336;2023-04-01T07:03:34;-1.30;87.20
12384;DHT22;6256;63.808;20.336;2023-04-01T07:06:06;-1.30;87.60
12384;DHT22;6256;63.808;20.336;2023-04-01T07:08:38;-1.30;87.40
12384;DHT22;6256;63.808;20.336;2023-04-01T07:11:09;-1.20;86.50
12384;DHT22;6256;63.808;20.336;2023-04-01T07:13:51;-1.20;87.40
12384;DHT22;6256;63.808;20.336;2023-04-01T07:16:27;-1.10;87.20
12384;DHT22;6256;63.808;20.336;2023-04-01T07:19:08;-1.10;87.20
12384;DHT22;6256;63.808;20.336;2023-04-01T07:21:51;-1.00;86.80
12384;DHT22;6256;63.808;20.336;2023-04-01T07:24:26;-0.90;86.70
12384;DHT22;6256;63.808;20.336;2023-04-01T07:26:55;-0.90;85.60
12384;DHT22;6256;63.808;20.336;2023-04-01T07:29:21;-0.80;85.20
12384;DHT22;6256;63.808;20.336;2023-04-01T07:35:13;-0.70;86.00
12384;DHT22;6256;63.808;20.336;2023-04-01T07:38:14;-0.60;84.90
12384;DHT22;6256;63.808;20.336;2023-04-01T07:57:41;-0.10;81.80
12384;DHT22;6256;63.808;20.336;2023-04-01T08:05:40;0.20;82.10
12384;DHT22;6256;63.808;20.336;2023-04-01T08:10:55;0.30;82.20
12384;DHT22;6256;63.808;20.336;2023-04-01T08:19:15;0.60;82.10
12384;DHT22;6256;63.808;20.336;2023-04-01T08:21:47;0.60;80.90
12384;DHT22;6256;63.808;20.336;2023-04-01T08:24:27;0.70;79.10
12384;DHT22;6256;63.808;20.336;2023-04-01T08:26:56;0.80;80.60
12384;DHT22;6256;63.808;20.336;2023-04-01T08:29:32;0.90;77.80
12384;DHT22;6256;63.808;20.336;2023-04-01T08:32:10;1.00;79.70
12384;DHT22;6256;63.808;20.336;2023-04-01T08:34:40;1.00;79.10
12384;DHT22;6256;63.808;20.336;2023-04-01T08:37:12;1.20;79.80
12384;DHT22;6256;63.808;20.336;2023-04-01T08:39:44;1.20;76.70
12384;DHT22;6256;63.808;20.336;2023-04-01T08:47:52;1.50;80.00
12384;DHT22;6256;63.808;20.336;2023-04-01T08:50:33;1.60;78.10
12384;DHT22;6256;63.808;20.336;2023-04-01T08:56:23;1.80;77.30
12384;DHT22;6256;63.808;20.336;2023-04-01T08:58:54;1.90;76.40
12384;DHT22;6256;63.808;20.336;2023-04-01T09:04:32;2.00;74.40
12384;DHT22;6256;63.808;20.336;2023-04-01T09:21:07;2.50;74.20
12384;DHT22;6256;63.808;20.336;2023-04-01T09:29:46;3.00;75.50
12384;DHT22;6256;63.808;20.336;2023-04-01T09:32:38;3.00;74.20
12384;DHT22;6256;63.808;20.336;2023-04-01T09:35:30;3.10;70.80
12384;DHT22;6256;63.808;20.336;2023-04-01T09:40:56;3.20;71.70
12384;DHT22;6256;63.808;20.336;2023-04-01T09:43:28;3.20;72.20
12384;DHT22;6256;63.808;20.336;2023-04-01T09:48:59;3.30;67.90
12384;DHT22;6256;63.808;20.336;2023-04-01T09:54:22;3.20;66.80
12384;DHT22;6256;63.808;20.336;2023-04-01T10:11:11;3.60;70.40
12384;DHT22;6256;63.808;20.336;2023-04-01T10:17:11;3.60;65.30
12384;DHT22;6256;63.808;20.336;2023-04-01T10:38:22;4.50;65.20
12384;DHT22;6256;63.808;20.336;2023-04-01T10:43:55;4.80;64.80
12384;DHT22;6256;63.808;20.336;2023-04-01T10:49:48;5.10;60.60
12384;DHT22;6256;63.808;20.336;2023-04-01T11:24:04;9.20;54.80
12384;DHT22;6256;63.808;20.336;2023-04-01T11:26:47;8.90;56.20
12384;DHT22;6256;63.808;20.336;2023-04-01T11:29:26;9.10;58.50
12384;DHT22;6256;63.808;20.336;2023-04-01T11:32:25;8.70;51.80
12384;DHT22;6256;63.808;20.336;2023-04-01T11:35:46;7.80;51.50
12384;DHT22;6256;63.808;20.336;2023-04-01T11:41:15;7.90;54.60
12384;DHT22;6256;63.808;20.336;2023-04-01T11:43:57;8.10;55.20
12384;DHT22;6256;63.808;20.336;2023-04-01T11:51:44;7.70;51.50
12384;DHT22;6256;63.808;20.336;2023-04-01T11:55:19;7.60;53.50
12384;DHT22;6256;63.808;20.336;2023-04-01T12:06:32;8.90;53.30
12384;DHT22;6256;63.808;20.336;2023-04-01T12:15:32;9.20;53.70
12384;DHT22;6256;63.808;20.336;2023-04-01T12:26:44;8.30;55.60
12384;DHT22;6256;63.808;20.336;2023-04-01T12:37:47;7.40;50.50
12384;DHT22;6256;63.808;20.336;2023-04-01T13:14:37;10.10;51.90
12384;DHT22;6256;63.808;20.336;2023-04-01T13:20:06;10.30;49.50
12384;DHT22;6256;63.808;20.336;2023-04-01T13:28:32;10.90;50.40
12384;DHT22;6256;63.808;20.336;2023-04-01T13:31:33;11.60;50.50
12384;DHT22;6256;63.808;20.336;2023-04-01T13:36:52;11.50;49.80
12384;DHT22;6256;63.808;20.336;2023-04-01T13:42:37;11.30;47.70
12384;DHT22;6256;63.808;20.336;2023-04-01T13:45:29;10.90;45.80
12384;DHT22;6256;63.808;20.336;2023-04-01T13:54:09;10.50;48.70
12384;DHT22;6256;63.808;20.336;2023-04-01T13:59:59;11.50;49.30
12384;DHT22;6256;63.808;20.336;2023-04-01T14:02:44;11.20;46.70
12384;DHT22;6256;63.808;20.336;2023-04-01T14:10:43;8.70;55.50
12384;DHT22;6256;63.808;20.336;2023-04-01T14:19:08;8.90;54.00
12384;DHT22;6256;63.808;20.336;2023-04-01T14:21:58;8.90;55.30
12384;DHT22;6256;63.808;20.336;2023-04-01T14:32:44;7.40;54.80
12384;DHT22;6256;63.808;20.336;2023-04-01T14:35:25;7.40;53.30
12384;DHT22;6256;63.808;20.336;2023-04-01T14:49:00;6.70;56.80
12384;DHT22;6256;63.808;20.336;2023-04-01T14:51:33;6.70;57.50
12384;DHT22;6256;63.808;20.336;2023-04-01T14:59:27;6.30;56.30
12384;DHT22;6256;63.808;20.336;2023-04-01T15:07:14;6.00;56.30
12384;DHT22;6256;63.808;20.336;2023-04-01T15:12:36;6.00;56.10
12384;DHT22;6256;63.808;20.336;2023-04-01T15:15:14;6.00;57.90
12384;DHT22;6256;63.808;20.336;2023-04-01T15:18:03;6.00;57.90
12384;DHT22;6256;63.808;20.336;2023-04-01T15:29:23;5.70;56.70
12384;DHT22;6256;63.808;20.336;2023-04-01T15:40:02;5.40;58.50
12384;DHT22;6256;63.808;20.336;2023-04-01T15:50:58;4.90;60.40
12384;DHT22;6256;63.808;20.336;2023-04-01T16:02:48;4.80;61.30
12384;DHT22;6256;63.808;20.336;2023-04-01T16:11:14;4.80;61.10
12384;DHT22;6256;63.808;20.336;2023-04-01T16:13:59;4.70;62.80
12384;DHT22;6256;63.808;20.336;2023-04-01T16:19:26;4.70;62.50
12384;DHT22;6256;63.808;20.336;2023-04-01T16:27:10;4.80;61.90
12384;DHT22;6256;63.808;20.336;2023-04-01T16:35:23;4.70;61.00
12384;DHT22;6256;63.808;20.336;2023-04-01T16:39:06;4.70;61.60
12384;DHT22;6256;63.808;20.336;2023-04-01T16:43:56;4.80;64.30
12384;DHT22;6256;63.808;20.336;2023-04-01T16:46:39;4.60;65.20
12384;DHT22;6256;63.808;20.336;2023-04-01T16:54:35;4.30;68.80
12384;DHT22;6256;63.808;20.336;2023-04-01T17:02:04;4.10;71.80
12384;DHT22;6256;63.808;20.336;2023-04-01T17:04:45;4.10;69.20
12384;DHT22;6256;63.808;20.336;2023-04-01T17:10:06;4.00;71.60
12384;DHT22;6256;63.808;20.336;2023-04-01T17:15:20;3.90;70.90
12384;DHT22;6256;63.808;20.336;2023-04-01T17:21:07;3.80;73.50
12384;DHT22;6256;63.808;20.336;2023-04-01T17:35:26;2.80;91.10
12384;DHT22;6256;63.808;20.336;2023-04-01T17:43:38;2.50;93.60
12384;DHT22;6256;63.808;20.336;2023-04-01T17:52:37;2.20;95.80
12384;DHT22;6256;63.808;20.336;2023-04-01T18:17:06;1.20;99.90
12384;DHT22;6256;63.808;20.336;2023-04-01T18:19:55;1.00;99.90
12384;DHT22;6256;63.808;20.336;2023-04-01T18:22:43;1.00;99.90
12384;DHT22;6256;63.808;20.336;2023-04-01T18:25:24;0.90;99.90
12384;DHT22;6256;63.808;20.336;2023-04-01T18:38:57;0.50;99.90
12384;DHT22;6256;63.808;20.336;2023-04-01T18:44:29;0.30;99.90
12384;DHT22;6256;63.808;20.336;2023-04-01T18:47:32;0.30;99.90
12384;DHT22;6256;63.808;20.336;2023-04-01T18:52:45;0.20;99.90
12384;DHT22;6256;63.808;20.336;2023-04-01T18:57:46;0.10;99.90
12384;DHT22;6256;63.808;20.336;2023-04-01T19:00:32;0.10;99.90
12384;DHT22;6256;63.808;20.336;2023-04-01T19:05:46;0.00;99.90
12384;DHT22;6256;63.808;20.336;2023-04-01T19:11:10;0.00;99.90
12384;DHT22;6256;63.808;20.336;2023-04-01T19:14:04;0.00;99.90
12384;DHT22;6256;63.808;20.336;2023-04-01T19:22:17;-0.10;99.90
12384;DHT22;6256;63.808;20.336;2023-04-01T19:24:48;-0.10;99.90
12384;DHT22;6256;63.808;20.336;2023-04-01T19:27:36;-0.20;99.90
12384;DHT22;6256;63.808;20.336;2023-04-01T19:30:19;-0.20;99.90
12384;DHT22;6256;63.808;20.336;2023-04-01T19:35:30;-0.30;99.90
12384;DHT22;6256;63.808;20.336;2023-04-01T19:40:42;-0.40;99.90
12384;DHT22;6256;63.808;20.336;2023-04-01T19:46:10;-0.50;99.90
12384;DHT22;6256;63.808;20.336;2023-04-01T19:53:57;-0.70;99.90
12384;DHT22;6256;63.808;20.336;2023-04-01T19:56:41;-0.80;99.90
12384;DHT22;6256;63.808;20.336;2023-04-01T20:04:51;-0.90;99.90
12384;DHT22;6256;63.808;20.336;2023-04-01T20:07:40;-1.00;99.90
12384;DHT22;6256;63.808;20.336;2023-04-01T20:15:35;-1.20;99.90
12384;DHT22;6256;63.808;20.336;2023-04-01T20:21:06;-1.20;99.90
12384;DHT22;6256;63.808;20.336;2023-04-01T20:24:00;-1.30;99.90
12384;DHT22;6256;63.808;20.336;2023-04-01T20:26:36;-1.30;99.90
12384;DHT22;6256;63.808;20.336;2023-04-01T20:32:22;-1.40;99.90
12384;DHT22;6256;63.808;20.336;2023-04-01T20:43:07;-1.50;99.90
12384;DHT22;6256;63.808;20.336;2023-04-01T20:45:48;-1.60;99.90
12384;DHT22;6256;63.808;20.336;2023-04-01T20:50:56;-1.60;99.90
12384;DHT22;6256;63.808;20.336;2023-04-01T20:53:49;-1.60;99.90
12384;DHT22;6256;63.808;20.336;2023-04-01T21:12:32;-1.80;99.90
12384;DHT22;6256;63.808;20.336;2023-04-01T21:46:11;-2.20;99.90
12384;DHT22;6256;63.808;20.336;2023-04-01T22:00:38;-2.30;99.90
12384;DHT22;6256;63.808;20.336;2023-04-01T22:11:42;-2.30;99.90
12384;DHT22;6256;63.808;20.336;2023-04-01T22:14:36;-2.30;99.90
12384;DHT22;6256;63.808;20.336;2023-04-01T22:20:25;-2.30;99.90
12384;DHT22;6256;63.808;20.336;2023-04-01T22:25:50;-2.40;99.90
12384;DHT22;6256;63.808;20.336;2023-04-01T22:28:24;-2.50;99.90
12384;DHT22;6256;63.808;20.336;2023-04-01T22:31:01;-2.40;99.90
12384;DHT22;6256;63.808;20.336;2023-04-01T22:36:44;-2.50;99.90
12384;DHT22;6256;63.808;20.336;2023-04-01T22:44:53;-2.50;99.90
12384;DHT22;6256;63.808;20.336;2023-04-01T22:50:12;-2.50;99.90
12384;DHT22;6256;63.808;20.336;2023-04-01T22:52:43;-2.50;99.90
12384;DHT22;6256;63.808;20.336;2023-04-01T22:58:00;-2.50;99.90
12384;DHT22;6256;63.808;20.336;2023-04-01T23:00:47;-2.50;99.90
12384;DHT22;6256;63.808;20.336;2023-04-01T23:03:34;-2.60;99.90
12384;DHT22;6256;63.808;20.336;2023-04-01T23:06:03;-2.60;99.90
12384;DHT22;6256;63.808;20.336;2023-04-01T23:11:13;-2.70;99.90
12384;DHT22;6256;63.808;20.336;2023-04-01T23:16:30;-2.70;99.90
12384;DHT22;6256;63.808;20.336;2023-04-01T23:21:51;-2.70;99.90
12384;DHT22;6256;63.808;20.336;2023-04-01T23:24:36;-2.80;99.90
12384;DHT22;6256;63.808;20.336;2023-04-01T23:27:10;-2.80;99.90
12384;DHT22;6256;63.808;20.336;2023-04-01T23:29:39;-2.90;99.90
12384;DHT22;6256;63.808;20.336;2023-04-01T23:32:19;-3.00;99.90
12384;DHT22;6256;63.808;20.336;2023-04-01T23:34:52;-3.00;99.90
12384;DHT22;6256;63.808;20.336;2023-04-01T23:37:20;-3.00;99.90
12384;DHT22;6256;63.808;20.336;2023-04-01T23:39:57;-3.10;99.90
12384;DHT22;6256;63.808;20.336;2023-04-01T23:42:24;-3.10;99.90
12384;DHT22;6256;63.808;20.336;2023-04-01T23:44:59;-3.10;99.90
12384;DHT22;6256;63.808;20.336;2023-04-01T23:47:32;-3.20;99.90
12384;DHT22;6256;63.808;20.336;2023-04-01T23:50:11;-3.20;99.90
12384;DHT22;6256;63.808;20.336;2023-04-01T23:52:46;-3.20;99.90
12384;DHT22;6256;63.808;20.336;2023-04-01T23:55:28;-3.20;99.90
12384;DHT22;6256;63.808;20.336;2023-04-01T23:58:14;-3.20;99.90
